Darien, GA

10:39 AM EDT on August 30, 2014 (GMT -0400)
McKinnon | Change Station
CLOSE
Current Station
Airport
Location: Saint Simons Island,
Elevation: 20 ft
Nearby Weather Stations

Elev 20 ft 31.15 °N, 81.39 °W | Updated 13 minutes ago

Overcast
Overcast
83 °F
Feels Like 89 °F
N
0
Wind Variable Wind from North

Today
High -- | Low -- °F
--% Chance of Precip.
Yesterday
High -- | Low -- °F
Precip. -- in
7:00 AM 7:51 PM
Waxing Crescent, 22% visible
Pressure 30.17 in
Visibility 10.0 miles
Clouds Mostly Cloudy 1900 ft
Mostly Cloudy 2800 ft
Overcast 3300 ft
Heat Index 89 °F
Dew Point 74 °F
Humidity 74%
Rainfall 0.00 in
Snow Depth Not available.
UV 2 out of 12
Pollen 7.00 out of 12
Air Quality Not available.
Flu Activity Not available.
SPECI KSSI 301426Z AUTO 00000KT 10SM BKN019 BKN028 OVC033 28/23 A3017 RMK AO2 T02830233

More Conditions Fewer Conditions

Pressure 30.17 in
Visibility 10.0 miles
Clouds Mostly Cloudy 1900 ft
Mostly Cloudy 2800 ft
Overcast 3300 ft
Heat Index 89 °F
Dew Point 74 °F
Humidity 74%
Rainfall 0.00 in
Snow Depth Not available.
UV 2 out of 12
Pollen 7.00 out of 12
Air Quality Not available.
Flu Activity Not available.
SPECI KSSI 301426Z AUTO 00000KT 10SM BKN019 BKN028 OVC033 28/23 A3017 RMK AO2 T02830233

More Conditions Fewer Conditions

10-Day Weather Forecast

Almanac

Astronomy

Aug. 30, 2014 Rise Set
Actual Time 7:00 AM EDT 7:51 PM EDT
Civil Twilight 6:35 AM EDT 8:16 PM EDT
Nautical Twilight 6:06 AM EDT 8:45 PM EDT
Astronomical Twilight 5:36 AM EDT 9:15 PM EDT
Moon 11:26 AM EDT 10:46 PM EDT
Length of Visible Light 13h 40m
Length of Day
12h 51m
Tomorrow will be 1m 49s shorter.
Waxing Crescent, 22% of the Moon is Illuminated
Today
Waxing Crescent
Sep 2
First Quarter
Sep 8
Full
Sep 15
Last Quarter
Sep 24
New

Today's Extremes

State Highs State Lows

Community

WunderPhotos

Upload Photos

1,748,523 photos uploaded!

WunderBlogs® & News

Nearby

Snow Depth

Station Depth Elevation
No new snow has been reported.

Earthquake Activity

City Distance Mag. Time & Date
No recent earthquake activity has been reported nearby.
Minimum magnitude displayed is 2.5.

Coastal Water Temperatures

Place Temperature
No Stations Reporting

Nearby Weather Stations